Carmel, Maine
Current Conditions -  °F | °C
As of 4:53 PM on Monday 24 Nov 2014 (Local Time) from KBGR Reporting Station
Drizzle Drizzle  
Wind Chill: 57°   Ceiling: 400
Heat Index: 57°   Visibility: 3mi
Dew Point: 56°   Wind: 16mph
Humidity: 96%   Direction: 170°S
Pressure: 29.54"   Gusts: 26mph
Location:  44.8°N, 69.05°W
Report Text: KBGR 242153Z 17014G23KT 3SM -DZ BR OVC004 14/13 A2954 RMK AO2 RAE2054DZB2054 SLP004 P0000 T01390133
Loading
Personal Weather Stations






























Interactive Weather Map New forecast layout! Learn more

10-Day Weather Forecast

Advertisements
Track Severe Weather on mobile